sensor_id;sensor_type;location;lat;lon;timestamp;temperature;humidity
4324;DHT22;2175;51.018;6.994;2023-02-26T00:01:14;1.50;1.00
4324;DHT22;2175;51.018;6.994;2023-02-26T00:03:40;1.60;1.00
4324;DHT22;2175;51.018;6.994;2023-02-26T00:06:06;1.70;1.00
4324;DHT22;2175;51.018;6.994;2023-02-26T00:08:32;1.80;1.00
4324;DHT22;2175;51.018;6.994;2023-02-26T00:10:58;1.80;1.00
4324;DHT22;2175;51.018;6.994;2023-02-26T00:13:27;1.80;1.00
4324;DHT22;2175;51.018;6.994;2023-02-26T00:15:57;1.80;1.00
4324;DHT22;2175;51.018;6.994;2023-02-26T00:18:23;1.80;1.00
4324;DHT22;2175;51.018;6.994;2023-02-26T00:20:49;1.90;1.00
4324;DHT22;2175;51.018;6.994;2023-02-26T00:23:15;1.90;1.00
4324;DHT22;2175;51.018;6.994;2023-02-26T00:25:42;1.90;1.00
4324;DHT22;2175;51.018;6.994;2023-02-26T00:28:08;1.90;1.00
4324;DHT22;2175;51.018;6.994;2023-02-26T00:30:34;1.90;1.00
4324;DHT22;2175;51.018;6.994;2023-02-26T00:33:00;1.90;1.00
4324;DHT22;2175;51.018;6.994;2023-02-26T00:35:26;1.90;1.00
4324;DHT22;2175;51.018;6.994;2023-02-26T00:38:08;1.90;1.00
4324;DHT22;2175;51.018;6.994;2023-02-26T00:40:44;1.90;1.00
4324;DHT22;2175;51.018;6.994;2023-02-26T00:43:17;1.90;1.00
4324;DHT22;2175;51.018;6.994;2023-02-26T00:45:55;1.90;1.00
4324;DHT22;2175;51.018;6.994;2023-02-26T00:53:58;1.80;1.00
4324;DHT22;2175;51.018;6.994;2023-02-26T00:56:27;1.80;1.00
4324;DHT22;2175;51.018;6.994;2023-02-26T00:58:53;1.80;1.00
4324;DHT22;2175;51.018;6.994;2023-02-26T01:01:19;1.70;1.00
4324;DHT22;2175;51.018;6.994;2023-02-26T01:03:44;1.70;1.00
4324;DHT22;2175;51.018;6.994;2023-02-26T01:06:16;1.60;1.00
4324;DHT22;2175;51.018;6.994;2023-02-26T01:11:11;1.40;1.00
4324;DHT22;2175;51.018;6.994;2023-02-26T01:13:37;1.30;1.00
4324;DHT22;2175;51.018;6.994;2023-02-26T01:16:06;1.30;1.00
4324;DHT22;2175;51.018;6.994;2023-02-26T01:18:47;1.30;7.00
4324;DHT22;2175;51.018;6.994;2023-02-26T01:21:18;1.20;10.20
4324;DHT22;2175;51.018;6.994;2023-02-26T01:23:46;1.20;13.40
4324;DHT22;2175;51.018;6.994;2023-02-26T01:26:21;1.10;9.30
4324;DHT22;2175;51.018;6.994;2023-02-26T01:28:47;1.00;5.10
4324;DHT22;2175;51.018;6.994;2023-02-26T01:34:08;0.90;14.20
4324;DHT22;2175;51.018;6.994;2023-02-26T01:36:45;0.80;29.70
4324;DHT22;2175;51.018;6.994;2023-02-26T01:41:48;0.70;44.20
4324;DHT22;2175;51.018;6.994;2023-02-26T01:49:21;0.60;95.10
4324;DHT22;2175;51.018;6.994;2023-02-26T01:51:51;0.50;80.00
4324;DHT22;2175;51.018;6.994;2023-02-26T01:54:32;0.60;84.50
4324;DHT22;2175;51.018;6.994;2023-02-26T01:57:10;0.60;82.30
4324;DHT22;2175;51.018;6.994;2023-02-26T01:59:39;0.80;90.70
4324;DHT22;2175;51.018;6.994;2023-02-26T02:02:07;0.80;79.30
4324;DHT22;2175;51.018;6.994;2023-02-26T02:04:35;0.90;83.50
4324;DHT22;2175;51.018;6.994;2023-02-26T02:07:03;0.90;74.10
4324;DHT22;2175;51.018;6.994;2023-02-26T02:09:29;0.80;82.50
4324;DHT22;2175;51.018;6.994;2023-02-26T02:12:10;0.80;57.20
4324;DHT22;2175;51.018;6.994;2023-02-26T02:17:11;0.80;58.70
4324;DHT22;2175;51.018;6.994;2023-02-26T02:19:54;0.70;57.60
4324;DHT22;2175;51.018;6.994;2023-02-26T02:26:08;0.80;76.40
4324;DHT22;2175;51.018;6.994;2023-02-26T02:34:18;0.80;88.80
4324;DHT22;2175;51.018;6.994;2023-02-26T02:39:52;0.80;89.80
4324;DHT22;2175;51.018;6.994;2023-02-26T02:45:18;0.60;77.00
4324;DHT22;2175;51.018;6.994;2023-02-26T02:47:49;0.60;74.30
4324;DHT22;2175;51.018;6.994;2023-02-26T02:50:27;0.60;87.10
4324;DHT22;2175;51.018;6.994;2023-02-26T02:52:59;0.60;92.00
4324;DHT22;2175;51.018;6.994;2023-02-26T02:55:35;0.60;94.90
4324;DHT22;2175;51.018;6.994;2023-02-26T02:58:16;0.60;95.20
4324;DHT22;2175;51.018;6.994;2023-02-26T03:00:50;0.60;94.10
4324;DHT22;2175;51.018;6.994;2023-02-26T03:05:54;0.60;97.40
4324;DHT22;2175;51.018;6.994;2023-02-26T03:08:25;0.60;95.90
4324;DHT22;2175;51.018;6.994;2023-02-26T03:10:51;0.60;92.40
4324;DHT22;2175;51.018;6.994;2023-02-26T03:13:20;0.50;92.40
4324;DHT22;2175;51.018;6.994;2023-02-26T03:18:30;0.60;95.50
4324;DHT22;2175;51.018;6.994;2023-02-26T03:21:13;0.60;95.50
4324;DHT22;2175;51.018;6.994;2023-02-26T03:23:58;0.50;93.70
4324;DHT22;2175;51.018;6.994;2023-02-26T03:31:54;0.60;82.90
4324;DHT22;2175;51.018;6.994;2023-02-26T03:37:07;0.50;74.50
4324;DHT22;2175;51.018;6.994;2023-02-26T03:39:42;0.40;74.80
4324;DHT22;2175;51.018;6.994;2023-02-26T03:42:25;0.40;42.00
4324;DHT22;2175;51.018;6.994;2023-02-26T03:45:06;0.50;52.60
4324;DHT22;2175;51.018;6.994;2023-02-26T03:47:34;0.50;59.60
4324;DHT22;2175;51.018;6.994;2023-02-26T03:50:07;0.50;51.60
4324;DHT22;2175;51.018;6.994;2023-02-26T03:52:37;0.50;57.10
4324;DHT22;2175;51.018;6.994;2023-02-26T03:55:14;0.50;60.10
4324;DHT22;2175;51.018;6.994;2023-02-26T03:57:41;0.40;51.10
4324;DHT22;2175;51.018;6.994;2023-02-26T04:00:08;0.40;65.60
4324;DHT22;2175;51.018;6.994;2023-02-26T04:02:42;0.50;53.70
4324;DHT22;2175;51.018;6.994;2023-02-26T04:05:22;0.50;41.80
4324;DHT22;2175;51.018;6.994;2023-02-26T04:07:50;0.50;32.00
4324;DHT22;2175;51.018;6.994;2023-02-26T04:10:18;0.40;36.80
4324;DHT22;2175;51.018;6.994;2023-02-26T04:12:46;0.50;37.90
4324;DHT22;2175;51.018;6.994;2023-02-26T04:15:12;0.50;28.70
4324;DHT22;2175;51.018;6.994;2023-02-26T04:17:38;0.50;14.70
4324;DHT22;2175;51.018;6.994;2023-02-26T04:20:04;0.60;19.50
4324;DHT22;2175;51.018;6.994;2023-02-26T04:22:35;0.50;20.50
4324;DHT22;2175;51.018;6.994;2023-02-26T04:25:02;0.40;17.40
4324;DHT22;2175;51.018;6.994;2023-02-26T04:27:27;0.40;13.30
4324;DHT22;2175;51.018;6.994;2023-02-26T04:29:53;0.40;18.30
4324;DHT22;2175;51.018;6.994;2023-02-26T04:32:19;0.30;16.80
4324;DHT22;2175;51.018;6.994;2023-02-26T04:34:44;0.30;19.30
4324;DHT22;2175;51.018;6.994;2023-02-26T04:37:10;0.30;21.90
4324;DHT22;2175;51.018;6.994;2023-02-26T04:39:35;0.20;26.70
4324;DHT22;2175;51.018;6.994;2023-02-26T04:42:01;0.20;39.00
4324;DHT22;2175;51.018;6.994;2023-02-26T04:44:29;0.20;56.00
4324;DHT22;2175;51.018;6.994;2023-02-26T04:46:54;0.20;48.60
4324;DHT22;2175;51.018;6.994;2023-02-26T04:49:20;0.30;48.20
4324;DHT22;2175;51.018;6.994;2023-02-26T04:51:46;0.30;42.10
4324;DHT22;2175;51.018;6.994;2023-02-26T04:54:11;0.30;44.50
4324;DHT22;2175;51.018;6.994;2023-02-26T04:56:37;0.30;26.60
4324;DHT22;2175;51.018;6.994;2023-02-26T04:59:02;0.40;29.30
4324;DHT22;2175;51.018;6.994;2023-02-26T05:01:28;0.30;23.40
4324;DHT22;2175;51.018;6.994;2023-02-26T05:03:54;0.30;24.90
4324;DHT22;2175;51.018;6.994;2023-02-26T05:06:19;0.30;23.50
4324;DHT22;2175;51.018;6.994;2023-02-26T05:08:45;0.40;24.30
4324;DHT22;2175;51.018;6.994;2023-02-26T05:11:11;0.40;18.00
4324;DHT22;2175;51.018;6.994;2023-02-26T05:13:37;0.30;18.00
4324;DHT22;2175;51.018;6.994;2023-02-26T05:16:04;0.30;25.10
4324;DHT22;2175;51.018;6.994;2023-02-26T05:18:29;0.30;22.80
4324;DHT22;2175;51.018;6.994;2023-02-26T05:20:57;0.30;20.30
4324;DHT22;2175;51.018;6.994;2023-02-26T05:23:23;0.30;23.00
4324;DHT22;2175;51.018;6.994;2023-02-26T05:25:49;0.20;26.40
4324;DHT22;2175;51.018;6.994;2023-02-26T05:28:14;0.30;24.60
4324;DHT22;2175;51.018;6.994;2023-02-26T05:30:41;0.30;25.00
4324;DHT22;2175;51.018;6.994;2023-02-26T05:33:07;0.30;22.90
4324;DHT22;2175;51.018;6.994;2023-02-26T05:35:32;0.30;17.30
4324;DHT22;2175;51.018;6.994;2023-02-26T05:37:58;0.20;21.80
4324;DHT22;2175;51.018;6.994;2023-02-26T05:40:24;0.20;22.80
4324;DHT22;2175;51.018;6.994;2023-02-26T05:42:49;0.20;21.30
4324;DHT22;2175;51.018;6.994;2023-02-26T05:45:16;0.10;33.00
4324;DHT22;2175;51.018;6.994;2023-02-26T05:47:42;0.20;34.30
4324;DHT22;2175;51.018;6.994;2023-02-26T05:50:08;0.10;28.00
4324;DHT22;2175;51.018;6.994;2023-02-26T05:52:34;0.10;39.30
4324;DHT22;2175;51.018;6.994;2023-02-26T05:55:00;0.20;50.00
4324;DHT22;2175;51.018;6.994;2023-02-26T05:57:26;0.20;46.80
4324;DHT22;2175;51.018;6.994;2023-02-26T05:59:51;0.20;26.30
4324;DHT22;2175;51.018;6.994;2023-02-26T06:02:17;0.20;42.10
4324;DHT22;2175;51.018;6.994;2023-02-26T06:04:42;0.20;44.10
4324;DHT22;2175;51.018;6.994;2023-02-26T06:07:08;0.10;26.00
4324;DHT22;2175;51.018;6.994;2023-02-26T06:09:34;0.10;41.30
4324;DHT22;2175;51.018;6.994;2023-02-26T06:11:59;0.10;31.40
4324;DHT22;2175;51.018;6.994;2023-02-26T06:14:25;0.10;43.60
4324;DHT22;2175;51.018;6.994;2023-02-26T06:16:50;0.10;40.20
4324;DHT22;2175;51.018;6.994;2023-02-26T06:19:16;0.10;52.10
4324;DHT22;2175;51.018;6.994;2023-02-26T06:21:42;0.10;52.90
4324;DHT22;2175;51.018;6.994;2023-02-26T06:24:07;0.10;56.00
4324;DHT22;2175;51.018;6.994;2023-02-26T06:26:33;0.10;53.20
4324;DHT22;2175;51.018;6.994;2023-02-26T06:28:58;0.00;63.60
4324;DHT22;2175;51.018;6.994;2023-02-26T06:31:24;0.10;65.50
4324;DHT22;2175;51.018;6.994;2023-02-26T06:33:50;0.00;65.00
4324;DHT22;2175;51.018;6.994;2023-02-26T06:36:15;0.00;53.20
4324;DHT22;2175;51.018;6.994;2023-02-26T06:38:42;0.00;61.70
4324;DHT22;2175;51.018;6.994;2023-02-26T06:41:10;0.00;62.10
4324;DHT22;2175;51.018;6.994;2023-02-26T06:43:35;0.00;64.60
4324;DHT22;2175;51.018;6.994;2023-02-26T06:46:01;0.00;61.90
4324;DHT22;2175;51.018;6.994;2023-02-26T06:48:27;0.00;45.20
4324;DHT22;2175;51.018;6.994;2023-02-26T06:50:53;0.10;46.40
4324;DHT22;2175;51.018;6.994;2023-02-26T06:53:18;0.10;55.30
4324;DHT22;2175;51.018;6.994;2023-02-26T06:55:45;0.10;46.60
4324;DHT22;2175;51.018;6.994;2023-02-26T06:58:11;0.10;50.60
4324;DHT22;2175;51.018;6.994;2023-02-26T07:00:38;0.10;43.40
4324;DHT22;2175;51.018;6.994;2023-02-26T07:03:04;0.10;48.10
4324;DHT22;2175;51.018;6.994;2023-02-26T07:05:30;0.10;42.90
4324;DHT22;2175;51.018;6.994;2023-02-26T07:07:56;0.20;37.90
4324;DHT22;2175;51.018;6.994;2023-02-26T07:10:21;0.30;32.40
4324;DHT22;2175;51.018;6.994;2023-02-26T07:12:50;0.30;24.00
4324;DHT22;2175;51.018;6.994;2023-02-26T07:15:15;0.30;21.10
4324;DHT22;2175;51.018;6.994;2023-02-26T07:17:41;0.30;24.80
4324;DHT22;2175;51.018;6.994;2023-02-26T07:20:08;0.30;22.90
4324;DHT22;2175;51.018;6.994;2023-02-26T07:22:35;0.30;35.30
4324;DHT22;2175;51.018;6.994;2023-02-26T07:25:03;0.30;25.30
4324;DHT22;2175;51.018;6.994;2023-02-26T07:27:28;0.30;27.10
4324;DHT22;2175;51.018;6.994;2023-02-26T07:29:55;0.30;27.50
4324;DHT22;2175;51.018;6.994;2023-02-26T07:32:20;0.30;27.50
4324;DHT22;2175;51.018;6.994;2023-02-26T07:35:04;0.40;37.30
4324;DHT22;2175;51.018;6.994;2023-02-26T07:37:30;0.50;18.80
4324;DHT22;2175;51.018;6.994;2023-02-26T07:39:56;0.50;23.40
4324;DHT22;2175;51.018;6.994;2023-02-26T07:42:21;0.50;28.80
4324;DHT22;2175;51.018;6.994;2023-02-26T07:44:47;0.50;11.50
4324;DHT22;2175;51.018;6.994;2023-02-26T07:47:44;0.50;8.90
4324;DHT22;2175;51.018;6.994;2023-02-26T07:50:10;0.50;18.60
4324;DHT22;2175;51.018;6.994;2023-02-26T07:52:36;0.60;17.10
4324;DHT22;2175;51.018;6.994;2023-02-26T07:55:02;0.70;17.20
4324;DHT22;2175;51.018;6.994;2023-02-26T07:57:27;0.80;9.90
4324;DHT22;2175;51.018;6.994;2023-02-26T07:59:57;1.00;8.00
4324;DHT22;2175;51.018;6.994;2023-02-26T08:02:49;1.10;9.40
4324;DHT22;2175;51.018;6.994;2023-02-26T08:05:14;1.10;1.00
4324;DHT22;2175;51.018;6.994;2023-02-26T08:07:40;1.20;1.00
4324;DHT22;2175;51.018;6.994;2023-02-26T08:10:06;1.20;11.50
4324;DHT22;2175;51.018;6.994;2023-02-26T08:12:32;1.20;1.00
4324;DHT22;2175;51.018;6.994;2023-02-26T08:14:57;1.30;1.00
4324;DHT22;2175;51.018;6.994;2023-02-26T08:17:23;1.30;1.00
4324;DHT22;2175;51.018;6.994;2023-02-26T08:19:49;1.30;1.00
4324;DHT22;2175;51.018;6.994;2023-02-26T08:22:14;1.30;1.00
4324;DHT22;2175;51.018;6.994;2023-02-26T08:24:40;1.30;1.00
4324;DHT22;2175;51.018;6.994;2023-02-26T08:27:05;1.30;1.00
4324;DHT22;2175;51.018;6.994;2023-02-26T08:29:31;1.30;1.00
4324;DHT22;2175;51.018;6.994;2023-02-26T08:31:57;1.30;1.00
4324;DHT22;2175;51.018;6.994;2023-02-26T08:34:22;1.40;1.00
4324;DHT22;2175;51.018;6.994;2023-02-26T08:36:49;1.30;1.00
4324;DHT22;2175;51.018;6.994;2023-02-26T08:39:15;1.50;1.00
4324;DHT22;2175;51.018;6.994;2023-02-26T08:41:40;1.50;1.00
4324;DHT22;2175;51.018;6.994;2023-02-26T08:44:06;1.70;1.00
4324;DHT22;2175;51.018;6.994;2023-02-26T08:49:38;2.20;1.00
4324;DHT22;2175;51.018;6.994;2023-02-26T08:55:26;4.00;1.00
4324;DHT22;2175;51.018;6.994;2023-02-26T09:01:20;5.60;1.00
4324;DHT22;2175;51.018;6.994;2023-02-26T09:03:55;6.30;99.90
4324;DHT22;2175;51.018;6.994;2023-02-26T09:06:20;6.70;1.00
4324;DHT22;2175;51.018;6.994;2023-02-26T09:08:46;6.80;1.00
4324;DHT22;2175;51.018;6.994;2023-02-26T09:11:14;7.00;1.00
4324;DHT22;2175;51.018;6.994;2023-02-26T09:16:55;7.30;99.90
4324;DHT22;2175;51.018;6.994;2023-02-26T09:19:21;7.60;1.00
4324;DHT22;2175;51.018;6.994;2023-02-26T09:21:47;6.60;99.90
4324;DHT22;2175;51.018;6.994;2023-02-26T09:24:12;5.60;1.00
4324;DHT22;2175;51.018;6.994;2023-02-26T09:26:39;5.50;99.90
4324;DHT22;2175;51.018;6.994;2023-02-26T09:29:04;4.80;99.90
4324;DHT22;2175;51.018;6.994;2023-02-26T09:31:30;4.50;99.90
4324;DHT22;2175;51.018;6.994;2023-02-26T09:33:56;4.30;1.00
4324;DHT22;2175;51.018;6.994;2023-02-26T09:36:22;3.90;1.00
4324;DHT22;2175;51.018;6.994;2023-02-26T09:38:50;3.80;1.00
4324;DHT22;2175;51.018;6.994;2023-02-26T09:41:33;3.80;99.90
4324;DHT22;2175;51.018;6.994;2023-02-26T09:44:18;3.90;1.00
4324;DHT22;2175;51.018;6.994;2023-02-26T09:47:19;3.80;99.90
4324;DHT22;2175;51.018;6.994;2023-02-26T09:50:02;3.50;1.00
4324;DHT22;2175;51.018;6.994;2023-02-26T09:55:54;4.00;1.00
4324;DHT22;2175;51.018;6.994;2023-02-26T09:58:37;4.50;1.00
4324;DHT22;2175;51.018;6.994;2023-02-26T10:01:21;4.80;99.90
4324;DHT22;2175;51.018;6.994;2023-02-26T10:12:36;4.40;99.90
4324;DHT22;2175;51.018;6.994;2023-02-26T10:15:14;4.30;99.90
4324;DHT22;2175;51.018;6.994;2023-02-26T10:20:42;4.60;1.00
4324;DHT22;2175;51.018;6.994;2023-02-26T10:23:44;4.60;1.00
4324;DHT22;2175;51.018;6.994;2023-02-26T10:26:21;4.60;1.00
4324;DHT22;2175;51.018;6.994;2023-02-26T10:31:54;4.70;99.90
4324;DHT22;2175;51.018;6.994;2023-02-26T10:35:01;4.60;99.90
4324;DHT22;2175;51.018;6.994;2023-02-26T10:38:07;4.80;17.60
4324;DHT22;2175;51.018;6.994;2023-02-26T10:50:52;4.90;23.40
4324;DHT22;2175;51.018;6.994;2023-02-26T10:59:12;5.00;99.90
4324;DHT22;2175;51.018;6.994;2023-02-26T11:01:38;4.70;99.90
4324;DHT22;2175;51.018;6.994;2023-02-26T11:04:07;4.60;99.90
4324;DHT22;2175;51.018;6.994;2023-02-26T11:06:41;4.50;99.90
4324;DHT22;2175;51.018;6.994;2023-02-26T11:09:35;4.50;99.90
4324;DHT22;2175;51.018;6.994;2023-02-26T11:12:11;4.40;99.90
4324;DHT22;2175;51.018;6.994;2023-02-26T11:14:41;4.30;99.90
4324;DHT22;2175;51.018;6.994;2023-02-26T11:20:15;4.30;99.90
4324;DHT22;2175;51.018;6.994;2023-02-26T11:22:49;4.40;99.90
4324;DHT22;2175;51.018;6.994;2023-02-26T11:25:19;4.40;99.90
4324;DHT22;2175;51.018;6.994;2023-02-26T11:27:49;4.40;99.90
4324;DHT22;2175;51.018;6.994;2023-02-26T11:30:19;4.50;99.90
4324;DHT22;2175;51.018;6.994;2023-02-26T11:32:49;4.50;99.90
4324;DHT22;2175;51.018;6.994;2023-02-26T11:35:16;4.30;99.90
4324;DHT22;2175;51.018;6.994;2023-02-26T11:37:53;4.30;99.90
4324;DHT22;2175;51.018;6.994;2023-02-26T11:40:34;4.30;99.90
4324;DHT22;2175;51.018;6.994;2023-02-26T11:43:05;4.30;99.90
4324;DHT22;2175;51.018;6.994;2023-02-26T11:45:34;4.40;99.90
4324;DHT22;2175;51.018;6.994;2023-02-26T11:48:06;4.50;99.90
4324;DHT22;2175;51.018;6.994;2023-02-26T11:50:41;4.70;99.90
4324;DHT22;2175;51.018;6.994;2023-02-26T11:53:34;4.60;99.90
4324;DHT22;2175;51.018;6.994;2023-02-26T11:56:10;4.50;1.00
4324;DHT22;2175;51.018;6.994;2023-02-26T11:58:38;4.60;1.00
4324;DHT22;2175;51.018;6.994;2023-02-26T12:01:06;4.60;1.00
4324;DHT22;2175;51.018;6.994;2023-02-26T12:03:36;4.70;1.00
4324;DHT22;2175;51.018;6.994;2023-02-26T12:06:05;4.50;1.00
4324;DHT22;2175;51.018;6.994;2023-02-26T12:08:38;4.40;1.00
4324;DHT22;2175;51.018;6.994;2023-02-26T12:22:16;4.20;1.00
4324;DHT22;2175;51.018;6.994;2023-02-26T12:33:46;4.60;1.00
4324;DHT22;2175;51.018;6.994;2023-02-26T12:42:58;4.50;1.00
4324;DHT22;2175;51.018;6.994;2023-02-26T12:45:51;4.50;1.00
4324;DHT22;2175;51.018;6.994;2023-02-26T12:48:29;4.50;1.00
4324;DHT22;2175;51.018;6.994;2023-02-26T12:51:04;4.40;1.00
4324;DHT22;2175;51.018;6.994;2023-02-26T12:57:02;4.40;1.00
4324;DHT22;2175;51.018;6.994;2023-02-26T12:59:59;4.40;1.00
4324;DHT22;2175;51.018;6.994;2023-02-26T13:02:37;4.50;1.00
4324;DHT22;2175;51.018;6.994;2023-02-26T13:11:00;4.70;1.00
4324;DHT22;2175;51.018;6.994;2023-02-26T13:13:49;4.60;1.00
4324;DHT22;2175;51.018;6.994;2023-02-26T13:16:50;4.50;1.00
4324;DHT22;2175;51.018;6.994;2023-02-26T13:19:46;4.70;1.00
4324;DHT22;2175;51.018;6.994;2023-02-26T13:24:47;5.00;1.00
4324;DHT22;2175;51.018;6.994;2023-02-26T13:27:15;5.00;1.00
4324;DHT22;2175;51.018;6.994;2023-02-26T13:29:48;5.00;1.00
4324;DHT22;2175;51.018;6.994;2023-02-26T13:32:24;5.00;1.00
4324;DHT22;2175;51.018;6.994;2023-02-26T13:34:56;4.90;1.00
4324;DHT22;2175;51.018;6.994;2023-02-26T13:37:32;4.80;1.00
4324;DHT22;2175;51.018;6.994;2023-02-26T13:51:12;5.10;1.00
4324;DHT22;2175;51.018;6.994;2023-02-26T13:58:47;5.30;1.00
4324;DHT22;2175;51.018;6.994;2023-02-26T14:01:16;5.10;1.00
4324;DHT22;2175;51.018;6.994;2023-02-26T14:11:57;5.20;1.00
4324;DHT22;2175;51.018;6.994;2023-02-26T14:14:39;5.20;1.00
4324;DHT22;2175;51.018;6.994;2023-02-26T14:22:36;5.10;1.00
4324;DHT22;2175;51.018;6.994;2023-02-26T14:27:49;5.00;1.00
4324;DHT22;2175;51.018;6.994;2023-02-26T14:30:17;5.00;1.00
4324;DHT22;2175;51.018;6.994;2023-02-26T14:35:37;4.90;1.00
4324;DHT22;2175;51.018;6.994;2023-02-26T14:38:28;5.10;1.00
4324;DHT22;2175;51.018;6.994;2023-02-26T14:41:04;5.00;1.00
4324;DHT22;2175;51.018;6.994;2023-02-26T14:46:04;5.10;1.00
4324;DHT22;2175;51.018;6.994;2023-02-26T14:48:31;5.20;1.00
4324;DHT22;2175;51.018;6.994;2023-02-26T14:51:15;5.00;1.00
4324;DHT22;2175;51.018;6.994;2023-02-26T15:05:03;5.20;1.00
4324;DHT22;2175;51.018;6.994;2023-02-26T15:10:42;5.10;1.00
4324;DHT22;2175;51.018;6.994;2023-02-26T15:16:13;4.80;1.00
4324;DHT22;2175;51.018;6.994;2023-02-26T15:21:38;4.90;1.00
4324;DHT22;2175;51.018;6.994;2023-02-26T15:24:09;4.90;1.00
4324;DHT22;2175;51.018;6.994;2023-02-26T15:26:41;4.80;1.00
4324;DHT22;2175;51.018;6.994;2023-02-26T15:29:10;4.90;1.00
4324;DHT22;2175;51.018;6.994;2023-02-26T15:31:53;4.90;1.00
4324;DHT22;2175;51.018;6.994;2023-02-26T15:34:19;5.00;1.00
4324;DHT22;2175;51.018;6.994;2023-02-26T15:36:49;4.90;1.00
4324;DHT22;2175;51.018;6.994;2023-02-26T15:39:16;4.90;1.00
4324;DHT22;2175;51.018;6.994;2023-02-26T15:41:45;5.00;1.00
4324;DHT22;2175;51.018;6.994;2023-02-26T15:44:18;4.90;1.00
4324;DHT22;2175;51.018;6.994;2023-02-26T15:46:47;4.80;1.00
4324;DHT22;2175;51.018;6.994;2023-02-26T15:49:24;4.80;1.00
4324;DHT22;2175;51.018;6.994;2023-02-26T15:51:53;4.80;1.00
4324;DHT22;2175;51.018;6.994;2023-02-26T15:54:21;4.70;1.00
4324;DHT22;2175;51.018;6.994;2023-02-26T15:56:49;4.70;1.00
4324;DHT22;2175;51.018;6.994;2023-02-26T15:59:28;4.70;1.00
4324;DHT22;2175;51.018;6.994;2023-02-26T16:01:55;4.70;1.00
4324;DHT22;2175;51.018;6.994;2023-02-26T16:04:22;4.50;1.00
4324;DHT22;2175;51.018;6.994;2023-02-26T16:06:52;4.50;1.00
4324;DHT22;2175;51.018;6.994;2023-02-26T16:09:46;4.40;1.00
4324;DHT22;2175;51.018;6.994;2023-02-26T16:15:26;4.30;1.00
4324;DHT22;2175;51.018;6.994;2023-02-26T16:17:54;4.30;1.00
4324;DHT22;2175;51.018;6.994;2023-02-26T16:20:23;4.30;1.00
4324;DHT22;2175;51.018;6.994;2023-02-26T16:25:25;4.30;1.00
4324;DHT22;2175;51.018;6.994;2023-02-26T16:28:46;4.20;1.00
4324;DHT22;2175;51.018;6.994;2023-02-26T16:30:55;4.20;1.00
4324;DHT22;2175;51.018;6.994;2023-02-26T16:33:23;4.20;1.00
4324;DHT22;2175;51.018;6.994;2023-02-26T16:36:12;4.20;1.00
4324;DHT22;2175;51.018;6.994;2023-02-26T16:38:56;4.10;1.00
4324;DHT22;2175;51.018;6.994;2023-02-26T16:41:24;4.10;1.00
4324;DHT22;2175;51.018;6.994;2023-02-26T16:43:54;4.00;1.00
4324;DHT22;2175;51.018;6.994;2023-02-26T16:46:43;4.00;1.00
4324;DHT22;2175;51.018;6.994;2023-02-26T16:49:21;3.90;43.90
4324;DHT22;2175;51.018;6.994;2023-02-26T16:51:48;3.90;99.90
4324;DHT22;2175;51.018;6.994;2023-02-26T16:54:19;3.80;99.90
4324;DHT22;2175;51.018;6.994;2023-02-26T16:56:55;3.80;83.20
4324;DHT22;2175;51.018;6.994;2023-02-26T17:19:53;3.50;99.90
4324;DHT22;2175;51.018;6.994;2023-02-26T17:22:25;3.50;99.90
4324;DHT22;2175;51.018;6.994;2023-02-26T17:24:51;3.50;1.00
4324;DHT22;2175;51.018;6.994;2023-02-26T17:27:30;3.40;1.00
4324;DHT22;2175;51.018;6.994;2023-02-26T17:30:00;3.40;99.90
4324;DHT22;2175;51.018;6.994;2023-02-26T17:32:26;3.40;1.00
4324;DHT22;2175;51.018;6.994;2023-02-26T17:34:53;3.40;1.00
4324;DHT22;2175;51.018;6.994;2023-02-26T17:37:19;3.30;18.70
4324;DHT22;2175;51.018;6.994;2023-02-26T17:39:54;3.20;81.80
4324;DHT22;2175;51.018;6.994;2023-02-26T17:42:25;3.30;18.60
4324;DHT22;2175;51.018;6.994;2023-02-26T17:44:50;3.20;3.40
4324;DHT22;2175;51.018;6.994;2023-02-26T17:47:22;3.20;1.00
4324;DHT22;2175;51.018;6.994;2023-02-26T17:49:47;3.10;99.90
4324;DHT22;2175;51.018;6.994;2023-02-26T17:52:13;3.10;99.90
4324;DHT22;2175;51.018;6.994;2023-02-26T17:54:39;3.10;99.90
4324;DHT22;2175;51.018;6.994;2023-02-26T17:57:05;3.10;66.70
4324;DHT22;2175;51.018;6.994;2023-02-26T17:59:33;3.20;32.30
4324;DHT22;2175;51.018;6.994;2023-02-26T18:01:59;3.10;99.90
4324;DHT22;2175;51.018;6.994;2023-02-26T18:04:26;3.10;1.00
4324;DHT22;2175;51.018;6.994;2023-02-26T18:06:51;3.00;99.90
4324;DHT22;2175;51.018;6.994;2023-02-26T18:09:18;3.10;1.00
4324;DHT22;2175;51.018;6.994;2023-02-26T18:11:43;3.10;99.90
4324;DHT22;2175;51.018;6.994;2023-02-26T18:14:10;3.10;1.00
4324;DHT22;2175;51.018;6.994;2023-02-26T18:16:41;3.00;1.00
4324;DHT22;2175;51.018;6.994;2023-02-26T18:19:12;3.10;1.00
4324;DHT22;2175;51.018;6.994;2023-02-26T18:21:38;3.00;35.70
4324;DHT22;2175;51.018;6.994;2023-02-26T18:24:04;3.00;1.00
4324;DHT22;2175;51.018;6.994;2023-02-26T18:26:31;3.00;2.70
4324;DHT22;2175;51.018;6.994;2023-02-26T18:28:57;2.90;99.90
4324;DHT22;2175;51.018;6.994;2023-02-26T18:31:24;2.90;1.00
4324;DHT22;2175;51.018;6.994;2023-02-26T18:33:57;2.80;1.00
4324;DHT22;2175;51.018;6.994;2023-02-26T18:36:24;2.80;99.90
4324;DHT22;2175;51.018;6.994;2023-02-26T18:39:03;2.80;99.90
4324;DHT22;2175;51.018;6.994;2023-02-26T18:41:30;2.70;1.00
4324;DHT22;2175;51.018;6.994;2023-02-26T18:43:56;2.70;99.90
4324;DHT22;2175;51.018;6.994;2023-02-26T18:46:23;2.60;1.00
4324;DHT22;2175;51.018;6.994;2023-02-26T18:48:49;2.60;99.90
4324;DHT22;2175;51.018;6.994;2023-02-26T18:51:15;2.50;1.00
4324;DHT22;2175;51.018;6.994;2023-02-26T18:53:40;2.40;99.90
4324;DHT22;2175;51.018;6.994;2023-02-26T18:56:06;2.40;99.90
4324;DHT22;2175;51.018;6.994;2023-02-26T18:58:31;2.40;1.00
4324;DHT22;2175;51.018;6.994;2023-02-26T19:00:57;2.40;99.90
4324;DHT22;2175;51.018;6.994;2023-02-26T19:03:24;2.40;1.00
4324;DHT22;2175;51.018;6.994;2023-02-26T19:06:01;2.40;99.90
4324;DHT22;2175;51.018;6.994;2023-02-26T19:08:27;2.40;1.00
4324;DHT22;2175;51.018;6.994;2023-02-26T19:10:55;2.40;99.90
4324;DHT22;2175;51.018;6.994;2023-02-26T19:13:21;2.40;1.00
4324;DHT22;2175;51.018;6.994;2023-02-26T19:15:47;2.40;1.00
4324;DHT22;2175;51.018;6.994;2023-02-26T19:18:13;2.40;1.00
4324;DHT22;2175;51.018;6.994;2023-02-26T19:20:40;2.40;41.40
4324;DHT22;2175;51.018;6.994;2023-02-26T19:23:09;2.30;99.90
4324;DHT22;2175;51.018;6.994;2023-02-26T19:28:31;2.30;99.90
4324;DHT22;2175;51.018;6.994;2023-02-26T19:30:57;2.30;89.20
4324;DHT22;2175;51.018;6.994;2023-02-26T19:33:23;2.30;1.00
4324;DHT22;2175;51.018;6.994;2023-02-26T19:35:49;2.30;1.00
4324;DHT22;2175;51.018;6.994;2023-02-26T19:38:15;2.30;1.00
4324;DHT22;2175;51.018;6.994;2023-02-26T19:40:41;2.20;99.90
4324;DHT22;2175;51.018;6.994;2023-02-26T19:43:08;2.20;23.40
4324;DHT22;2175;51.018;6.994;2023-02-26T19:45:33;2.20;1.00
4324;DHT22;2175;51.018;6.994;2023-02-26T19:48:05;2.20;99.90
4324;DHT22;2175;51.018;6.994;2023-02-26T19:50:31;2.10;1.00
4324;DHT22;2175;51.018;6.994;2023-02-26T19:52:56;2.10;1.00
4324;DHT22;2175;51.018;6.994;2023-02-26T19:55:22;2.00;1.00
4324;DHT22;2175;51.018;6.994;2023-02-26T19:57:48;1.90;1.00
4324;DHT22;2175;51.018;6.994;2023-02-26T20:00:14;1.80;99.90
4324;DHT22;2175;51.018;6.994;2023-02-26T20:02:40;1.80;99.90
4324;DHT22;2175;51.018;6.994;2023-02-26T20:05:07;1.70;99.90
4324;DHT22;2175;51.018;6.994;2023-02-26T20:07:36;1.70;99.90
4324;DHT22;2175;51.018;6.994;2023-02-26T20:10:02;1.70;99.90
4324;DHT22;2175;51.018;6.994;2023-02-26T20:12:28;1.80;99.90
4324;DHT22;2175;51.018;6.994;2023-02-26T20:14:55;1.80;99.90
4324;DHT22;2175;51.018;6.994;2023-02-26T20:17:20;1.90;1.00
4324;DHT22;2175;51.018;6.994;2023-02-26T20:19:46;1.90;1.00
4324;DHT22;2175;51.018;6.994;2023-02-26T20:22:11;1.90;99.90
4324;DHT22;2175;51.018;6.994;2023-02-26T20:24:37;1.90;99.90
4324;DHT22;2175;51.018;6.994;2023-02-26T20:27:03;1.80;1.00
4324;DHT22;2175;51.018;6.994;2023-02-26T20:29:31;1.80;1.00